Time;durP1;ratioP1;P1;durP2;ratioP2;P2;SDS_P1;SDS_P2;PMS_P1;PMS_P2;Temp;Humidity;BMP_temperature;BMP_pressure;BME280_temperature;BME280_humidity;BME280_pressure;Samples;Min_cycle;Max_cycle;Signal;HPM_P1;HPM_P2
2023/12/07 00:00:29;;;;;;;4.30;2.50;;;15.40;51.10;;;;;;6191681;22;45061;-66
2023/12/07 00:03:10;;;;;;;3.75;2.67;;;15.40;51.10;;;;;;6208028;22;46494;-66
2023/12/07 00:05:41;;;;;;;3.47;2.33;;;15.40;51.00;;;;;;6231782;22;44705;-66
2023/12/07 00:08:11;;;;;;;3.17;2.30;;;15.40;50.80;;;;;;6250507;22;44859;-66
2023/12/07 00:10:40;;;;;;;4.30;2.85;;;15.40;50.70;;;;;;6283496;22;44829;-66
2023/12/07 00:13:10;;;;;;;4.45;2.67;;;15.40;50.60;;;;;;6292410;22;45938;-66
2023/12/07 00:15:48;;;;;;;3.75;2.70;;;15.40;50.30;;;;;;6286930;22;44422;-66
2023/12/07 00:18:16;;;;;;;3.92;2.53;;;15.40;50.10;;;;;;6297213;22;44746;-66
2023/12/07 00:20:59;;;;;;;4.18;2.70;;;15.40;49.70;;;;;;6301965;22;44517;-66
2023/12/07 00:23:28;;;;;;;3.55;2.67;;;15.40;49.60;;;;;;6292070;22;46316;-66
2023/12/07 00:26:22;;;;;;;3.70;2.70;;;15.40;49.70;;;;;;6303343;22;44522;-66
2023/12/07 00:29:00;;;;;;;3.40;2.55;;;15.40;49.70;;;;;;6290121;22;44652;-66
2023/12/07 00:31:28;;;;;;;4.03;2.50;;;15.40;49.70;;;;;;6287916;22;44649;-66
2023/12/07 00:34:00;;;;;;;3.78;2.40;;;15.30;49.60;;;;;;6284838;22;46179;-66
2023/12/07 00:36:29;;;;;;;4.45;2.58;;;15.40;49.70;;;;;;6293422;22;44767;-66
2023/12/07 00:39:18;;;;;;;4.22;2.60;;;15.40;49.70;;;;;;6295312;22;44482;-66
2023/12/07 00:41:47;;;;;;;3.60;2.50;;;15.40;49.70;;;;;;6271982;22;44659;-66
2023/12/07 00:44:16;;;;;;;5.30;2.50;;;15.40;49.70;;;;;;6261959;22;46460;-66
2023/12/07 00:46:43;;;;;;;4.00;2.40;;;15.40;49.70;;;;;;6263093;22;44447;-66
2023/12/07 00:49:10;;;;;;;3.95;2.72;;;15.40;49.70;;;;;;6247838;22;44751;-66
2023/12/07 00:51:36;;;;;;;6.95;2.60;;;15.40;49.70;;;;;;6234654;22;44678;-66
2023/12/07 00:54:05;;;;;;;3.17;2.33;;;15.40;49.70;;;;;;6240939;22;46536;-66
2023/12/07 00:56:58;;;;;;;4.22;2.35;;;15.40;49.70;;;;;;6236980;22;44717;-66
2023/12/07 00:59:27;;;;;;;3.33;2.30;;;15.40;49.70;;;;;;6230597;22;44610;-66
2023/12/07 01:01:54;;;;;;;4.18;2.50;;;15.40;49.70;;;;;;6229192;22;44825;-66
2023/12/07 01:04:23;;;;;;;3.88;2.40;;;15.40;49.70;;;;;;6250953;22;46465;-66
2023/12/07 01:06:59;;;;;;;3.63;2.30;;;15.40;49.70;;;;;;6208898;22;44615;-66
2023/12/07 01:09:36;;;;;;;3.83;2.50;;;15.40;49.70;;;;;;6221440;22;44611;-65
2023/12/07 01:12:03;;;;;;;3.95;2.78;;;15.30;49.60;;;;;;6199062;22;44846;-66
2023/12/07 01:14:41;;;;;;;4.32;2.65;;;15.40;49.70;;;;;;6197211;22;46355;-66
2023/12/07 01:17:08;;;;;;;3.35;2.20;;;15.40;49.70;;;;;;6212314;22;44426;-66
2023/12/07 01:19:35;;;;;;;3.65;2.38;;;15.30;49.60;;;;;;6201300;22;44655;-66
2023/12/07 01:22:06;;;;;;;3.20;2.00;;;15.40;49.70;;;;;;6202886;22;44781;-66
2023/12/07 01:24:37;;;;;;;2.85;2.22;;;15.40;49.30;;;;;;6187982;22;46377;-66
2023/12/07 01:27:04;;;;;;;2.72;2.30;;;15.30;49.60;;;;;;6176032;22;44828;-66
2023/12/07 01:29:40;;;;;;;3.63;2.20;;;15.40;49.70;;;;;;6196323;22;44778;-66
2023/12/07 01:32:07;;;;;;;3.85;2.42;;;15.30;49.60;;;;;;6187773;22;44688;-65
2023/12/07 01:34:46;;;;;;;3.67;2.50;;;15.30;49.20;;;;;;6195625;22;46206;-65
2023/12/07 01:37:13;;;;;;;3.78;2.47;;;15.30;47.80;;;;;;6207134;22;44884;-65
2023/12/07 01:39:42;;;;;;;4.47;2.83;;;15.30;46.60;;;;;;6214521;22;44767;-65
2023/12/07 01:42:22;;;;;;;4.25;2.80;;;15.30;46.30;;;;;;6193831;22;44903;-64
2023/12/07 01:44:51;;;;;;;4.20;2.53;;;15.30;45.90;;;;;;6180604;22;46365;-65
2023/12/07 01:47:20;;;;;;;5.25;2.88;;;15.30;45.50;;;;;;6173139;22;44861;-65
2023/12/07 01:49:46;;;;;;;3.58;2.72;;;15.20;45.40;;;;;;6183317;22;44716;-65
2023/12/07 01:52:19;;;;;;;4.97;3.08;;;15.20;45.20;;;;;;6187099;22;45007;-65
2023/12/07 01:54:55;;;;;;;5.45;2.85;;;15.20;45.10;;;;;;6171055;22;45735;-65
2023/12/07 01:57:56;;;;;;;5.82;2.92;;;15.20;44.80;;;;;;6177148;22;44719;-65
2023/12/07 02:00:27;;;;;;;5.57;3.13;;;15.10;44.60;;;;;;6181497;22;44631;-65
2023/12/07 02:02:56;;;;;;;4.82;3.10;;;15.10;44.90;;;;;;6175506;22;44898;-65
2023/12/07 02:05:34;;;;;;;5.25;3.40;;;15.20;44.80;;;;;;6168220;22;46234;-65
2023/12/07 02:08:14;;;;;;;7.13;2.85;;;15.10;44.70;;;;;;6161248;22;44691;-65
2023/12/07 02:10:58;;;;;;;7.20;3.30;;;15.20;44.60;;;;;;6179697;22;44794;-65
2023/12/07 02:13:25;;;;;;;5.80;3.17;;;15.20;44.50;;;;;;6176310;22;44764;-65
2023/12/07 02:16:08;;;;;;;6.68;3.80;;;15.20;44.60;;;;;;6176699;22;46507;-65
2023/12/07 02:18:51;;;;;;;5.20;3.28;;;15.20;44.20;;;;;;6182124;22;44666;-65
2023/12/07 02:21:39;;;;;;;6.60;3.28;;;15.20;44.10;;;;;;6189586;22;44728;-65
2023/12/07 02:24:40;;;;;;;5.82;3.60;;;15.20;43.80;;;;;;6175461;22;44779;-65
2023/12/07 02:27:08;;;;;;;6.60;2.97;;;15.10;44.00;;;;;;6127962;22;46489;-65
2023/12/07 02:29:35;;;;;;;5.30;3.00;;;15.10;43.70;;;;;;6184903;22;44704;-66
2023/12/07 02:32:02;;;;;;;7.35;3.30;;;15.20;49.50;;;;;;6187259;22;44758;-66
2023/12/07 02:34:31;;;;;;;6.15;3.40;;;15.10;48.10;;;;;;6213686;22;44611;-66
2023/12/07 02:37:08;;;;;;;6.22;3.45;;;15.10;46.70;;;;;;6224038;22;46095;-66
2023/12/07 02:39:37;;;;;;;5.85;3.45;;;15.10;45.90;;;;;;6218824;22;44691;-66
2023/12/07 02:42:21;;;;;;;6.03;3.20;;;15.10;45.50;;;;;;6213594;22;44689;-66
2023/12/07 02:44:58;;;;;;;4.93;3.28;;;15.10;45.10;;;;;;6225972;22;44874;-65
2023/12/07 02:47:25;;;;;;;5.55;3.67;;;15.10;44.80;;;;;;6193231;22;45782;-66
2023/12/07 02:50:03;;;;;;;5.30;3.38;;;15.10;44.40;;;;;;6195531;22;44621;-66
2023/12/07 02:52:43;;;;;;;6.28;3.67;;;15.10;44.00;;;;;;6209244;22;44920;-66
2023/12/07 02:55:10;;;;;;;6.72;3.53;;;15.10;43.70;;;;;;6216568;22;44725;-66
2023/12/07 02:57:44;;;;;;;7.30;3.45;;;15.10;43.60;;;;;;6219731;22;45413;-66
2023/12/07 03:00:21;;;;;;;8.27;3.30;;;15.10;43.30;;;;;;6222921;22;44665;-65
2023/12/07 03:02:50;;;;;;;3.67;2.70;;;15.10;43.30;;;;;;6225878;22;44817;-65
2023/12/07 03:05:19;;;;;;;5.32;2.97;;;15.10;43.00;;;;;;6227799;22;44618;-66
2023/12/07 03:07:52;;;;;;;5.97;3.35;;;15.10;42.90;;;;;;6207512;22;46766;-66
2023/12/07 03:10:21;;;;;;;5.60;3.28;;;15.10;42.70;;;;;;6224483;22;44673;-65
2023/12/07 03:13:05;;;;;;;7.53;3.40;;;15.10;42.60;;;;;;6220120;22;44839;-65
2023/12/07 03:15:33;;;;;;;6.30;3.53;;;15.10;42.70;;;;;;6220779;22;44779;-66
2023/12/07 03:20:41;;;;;;;7.28;3.70;;;15.00;42.50;;;;;;6222654;22;44400;-66
2023/12/07 03:23:20;;;;;;;7.80;3.58;;;15.00;43.30;;;;;;6231958;22;45197;-65
2023/12/07 03:25:57;;;;;;;5.03;3.30;;;15.00;43.10;;;;;;6236339;22;44689;-66
2023/12/07 03:28:28;;;;;;;5.45;3.40;;;15.00;42.30;;;;;;6235566;22;46218;-65
2023/12/07 03:30:56;;;;;;;5.82;3.30;;;15.00;42.40;;;;;;6238926;22;44522;-65
2023/12/07 03:33:46;;;;;;;4.68;3.25;;;15.00;42.20;;;;;;6247008;22;44685;-65
2023/12/07 03:36:12;;;;;;;5.18;3.20;;;15.00;41.70;;;;;;6247181;22;44681;-65
2023/12/07 03:38:42;;;;;;;7.40;3.72;;;15.00;41.90;;;;;;6265364;22;45244;-66
2023/12/07 03:41:23;;;;;;;4.18;2.92;;;15.00;41.90;;;;;;6266243;22;44641;-66
2023/12/07 03:43:52;;;;;;;7.07;3.28;;;15.00;41.70;;;;;;6259921;22;44762;-65
2023/12/07 03:46:37;;;;;;;5.47;3.25;;;15.00;41.90;;;;;;6262533;22;44692;-65
2023/12/07 03:49:04;;;;;;;4.68;3.30;;;15.00;41.90;;;;;;6259934;22;46547;-65
2023/12/07 03:51:40;;;;;;;4.03;3.20;;;15.00;41.90;;;;;;6264960;22;44636;-64
2023/12/07 03:54:21;;;;;;;4.57;3.30;;;15.00;41.90;;;;;;6262258;22;44483;-64
2023/12/07 03:57:05;;;;;;;5.28;3.22;;;15.00;41.90;;;;;;6260089;22;44743;-65
2023/12/07 03:59:37;;;;;;;5.55;3.63;;;15.00;41.70;;;;;;6249837;22;46573;-64
2023/12/07 04:02:16;;;;;;;5.22;3.25;;;15.00;41.70;;;;;;6249172;22;45062;-64
2023/12/07 04:10:32;;;;;;;5.45;3.28;;;14.90;41.30;;;;;;6239858;22;45180;-64
2023/12/07 04:13:25;;;;;;;6.13;3.38;;;14.90;41.30;;;;;;6251838;22;44625;-64
2023/12/07 04:15:53;;;;;;;5.20;3.17;;;15.00;41.10;;;;;;6242317;22;44741;-64
2023/12/07 04:18:22;;;;;;;6.05;3.10;;;14.90;41.40;;;;;;6244997;22;44646;-64
2023/12/07 04:20:49;;;;;;;5.55;3.10;;;14.90;40.50;;;;;;6231371;22;45798;-64
2023/12/07 04:23:18;;;;;;;4.80;3.10;;;14.90;40.50;;;;;;6233151;22;44727;-64
2023/12/07 04:25:49;;;;;;;5.25;3.50;;;14.90;40.20;;;;;;6226546;22;44830;-64
2023/12/07 04:28:18;;;;;;;5.90;3.20;;;14.90;40.30;;;;;;6216734;22;44744;-64
2023/12/07 04:30:45;;;;;;;4.65;3.22;;;15.00;40.20;;;;;;6219011;22;46296;-63
2023/12/07 04:33:13;;;;;;;3.83;2.70;;;14.90;40.00;;;;;;6173852;22;44652;-63
2023/12/07 04:35:42;;;;;;;4.18;3.05;;;15.00;41.70;;;;;;6168598;22;44837;-63
2023/12/07 04:38:17;;;;;;;4.97;3.25;;;15.00;45.60;;;;;;6293579;22;44774;-63
2023/12/07 04:40:50;;;;;;;5.43;3.60;;;15.00;44.00;;;;;;6354040;22;45128;-63
2023/12/07 04:43:17;;;;;;;5.82;3.42;;;15.00;43.20;;;;;;6279436;22;44666;-65
2023/12/07 04:45:44;;;;;;;6.82;3.65;;;15.00;42.80;;;;;;6193512;22;44622;-65
2023/12/07 04:48:11;;;;;;;7.30;3.80;;;15.00;42.60;;;;;;6205462;22;44755;-65
2023/12/07 04:50:44;;;;;;;5.70;3.72;;;15.00;42.40;;;;;;6199954;22;46153;-65
2023/12/07 04:53:29;;;;;;;5.65;3.40;;;15.00;42.20;;;;;;6225433;22;44666;-65
2023/12/07 04:55:56;;;;;;;6.03;3.83;;;14.90;41.80;;;;;;6203954;22;44630;-65
2023/12/07 04:58:24;;;;;;;4.15;3.40;;;14.90;41.70;;;;;;6164836;22;44899;-65
2023/12/07 05:00:51;;;;;;;6.53;4.28;;;14.90;41.50;;;;;;6180664;22;46317;-64
2023/12/07 05:03:19;;;;;;;7.63;4.28;;;14.90;41.40;;;;;;6266211;22;44890;-64
2023/12/07 05:05:49;;;;;;;8.40;4.60;;;14.90;40.90;;;;;;6217747;22;44721;-64
2023/12/07 05:08:17;;;;;;;6.53;3.90;;;14.90;40.70;;;;;;6225512;22;44758;-64
2023/12/07 05:11:07;;;;;;;6.90;4.05;;;14.90;40.50;;;;;;6185173;22;46073;-64
2023/12/07 05:13:54;;;;;;;5.38;3.45;;;14.90;40.40;;;;;;6206123;22;44673;-64
2023/12/07 05:16:24;;;;;;;6.78;4.45;;;14.90;40.10;;;;;;6205889;22;44552;-64
2023/12/07 05:19:21;;;;;;;6.07;3.78;;;14.90;40.20;;;;;;6204691;22;44995;-64
2023/12/07 05:21:49;;;;;;;5.85;3.85;;;14.90;40.00;;;;;;6207983;22;46385;-64
2023/12/07 05:24:19;;;;;;;5.13;3.78;;;14.90;40.10;;;;;;6211322;22;44817;-64
2023/12/07 05:26:48;;;;;;;5.53;3.88;;;14.90;40.00;;;;;;6194491;22;44634;-65
2023/12/07 05:29:22;;;;;;;6.85;3.90;;;14.80;40.00;;;;;;6203821;22;44854;-64
2023/12/07 05:31:50;;;;;;;3.47;2.83;;;14.80;40.10;;;;;;6193175;22;46561;-64
2023/12/07 05:34:20;;;;;;;4.53;3.13;;;14.80;40.00;;;;;;6183344;22;45652;-64
2023/12/07 05:36:48;;;;;;;3.83;3.08;;;14.80;40.30;;;;;;6189701;22;44778;-65
2023/12/07 05:39:34;;;;;;;6.50;3.35;;;14.80;41.30;;;;;;6216767;22;44852;-65
2023/12/07 05:42:15;;;;;;;6.57;3.13;;;14.90;41.80;;;;;;6226815;22;46247;-65
2023/12/07 05:44:43;;;;;;;3.90;3.00;;;14.90;42.10;;;;;;6231794;22;44562;-65
2023/12/07 05:47:10;;;;;;;4.63;3.15;;;14.90;41.70;;;;;;6240512;22;44910;-64
2023/12/07 05:49:51;;;;;;;4.55;3.50;;;14.90;41.30;;;;;;6193896;22;44713;-65
2023/12/07 05:55:09;;;;;;;4.70;3.45;;;14.80;40.10;;;;;;6221975;22;44626;-63
2023/12/07 05:57:38;;;;;;;4.38;3.42;;;14.80;39.80;;;;;;6282583;22;44540;-65
2023/12/07 06:00:24;;;;;;;4.68;3.38;;;14.80;39.60;;;;;;6222794;22;44847;-64
2023/12/07 06:02:53;;;;;;;5.55;3.00;;;14.80;39.30;;;;;;6226410;22;46559;-64
2023/12/07 06:05:21;;;;;;;5.28;3.45;;;14.80;39.40;;;;;;6235296;22;44870;-63
2023/12/07 06:07:53;;;;;;;5.90;3.78;;;14.70;39.00;;;;;;6204290;22;44743;-64
2023/12/07 06:10:21;;;;;;;4.20;2.90;;;14.80;39.10;;;;;;6191495;22;44765;-63
2023/12/07 06:12:50;;;;;;;5.15;3.45;;;14.70;38.80;;;;;;6217481;22;45156;-64
2023/12/07 06:15:17;;;;;;;4.65;3.28;;;14.70;38.70;;;;;;6190916;22;44744;-64
2023/12/07 06:17:57;;;;;;;4.57;3.10;;;14.70;38.60;;;;;;6181216;22;44692;-65
2023/12/07 06:20:24;;;;;;;5.70;3.30;;;14.80;39.10;;;;;;6242161;22;44835;-65
2023/12/07 06:22:52;;;;;;;6.20;3.85;;;14.80;40.00;;;;;;6230438;22;46201;-64
2023/12/07 06:25:20;;;;;;;5.97;3.90;;;14.80;40.50;;;;;;6205674;22;44757;-64
2023/12/07 06:28:02;;;;;;;6.47;3.60;;;14.80;40.90;;;;;;6214447;22;44642;-64
2023/12/07 06:30:29;;;;;;;6.38;4.07;;;14.90;41.20;;;;;;6235704;22;44605;-64
2023/12/07 06:32:56;;;;;;;6.05;4.28;;;14.90;41.40;;;;;;6244510;22;46335;-64
2023/12/07 06:35:23;;;;;;;7.57;3.95;;;14.90;41.60;;;;;;6214071;22;44594;-64
2023/12/07 06:37:51;;;;;;;7.63;3.75;;;14.90;41.70;;;;;;6222747;22;44599;-65
2023/12/07 06:40:34;;;;;;;6.63;4.03;;;14.90;41.80;;;;;;6242237;22;44512;-64
2023/12/07 06:43:12;;;;;;;7.03;3.80;;;15.00;42.20;;;;;;6243034;22;45413;-65
2023/12/07 06:45:41;;;;;;;6.50;3.90;;;15.00;42.20;;;;;;6254717;22;44785;-65
2023/12/07 06:48:08;;;;;;;6.35;3.72;;;15.00;42.20;;;;;;6221339;22;44662;-65
2023/12/07 06:50:36;;;;;;;6.78;4.32;;;15.00;42.40;;;;;;6240381;22;44675;-65
2023/12/07 06:53:03;;;;;;;8.32;3.97;;;15.00;42.30;;;;;;6241961;22;46335;-65
2023/12/07 06:58:13;;;;;;;6.72;4.32;;;15.00;42.30;;;;;;6232204;22;44854;-65
2023/12/07 07:00:42;;;;;;;7.88;4.05;;;15.00;42.20;;;;;;6276632;22;44824;-65
2023/12/07 07:03:29;;;;;;;7.78;4.18;;;15.00;42.30;;;;;;6249648;22;46490;-65
2023/12/07 07:06:01;;;;;;;8.07;4.18;;;15.00;42.40;;;;;;6260261;22;44734;-65
2023/12/07 07:08:49;;;;;;;9.45;4.15;;;15.00;42.30;;;;;;6267008;22;44875;-65
2023/12/07 07:11:23;;;;;;;5.90;4.15;;;15.00;42.50;;;;;;6267323;22;44695;-65
2023/12/07 07:14:06;;;;;;;7.85;4.43;;;15.00;42.60;;;;;;6287808;22;46221;-65
2023/12/07 07:16:43;;;;;;;6.93;4.40;;;15.00;42.60;;;;;;6269211;22;44425;-65
2023/12/07 07:19:12;;;;;;;6.07;4.00;;;15.00;42.60;;;;;;6282063;22;44449;-65
2023/12/07 07:21:55;;;;;;;5.80;3.60;;;15.10;42.70;;;;;;6312528;22;44772;-65
2023/12/07 07:24:22;;;;;;;5.93;3.83;;;15.10;42.60;;;;;;6312450;22;46401;-65
2023/12/07 07:27:02;;;;;;;5.75;3.28;;;15.10;42.80;;;;;;6316592;22;44513;-65
2023/12/07 07:29:32;;;;;;;5.80;3.90;;;15.10;42.70;;;;;;6324851;22;44431;-65
2023/12/07 07:32:02;;;;;;;8.35;3.97;;;15.10;42.70;;;;;;6330351;22;44597;-65
2023/12/07 07:34:32;;;;;;;6.18;4.07;;;15.10;42.60;;;;;;6335133;22;46304;-65
2023/12/07 07:37:01;;;;;;;7.85;4.22;;;15.10;42.50;;;;;;6335966;22;44450;-65
2023/12/07 07:39:29;;;;;;;5.65;3.72;;;15.10;42.70;;;;;;6334317;22;44456;-65
2023/12/07 07:42:20;;;;;;;6.88;3.60;;;15.10;42.80;;;;;;6337577;22;44948;-65
2023/12/07 07:44:48;;;;;;;8.80;4.10;;;15.10;42.90;;;;;;6339160;22;46314;-65
2023/12/07 07:47:16;;;;;;;7.20;3.92;;;15.10;42.90;;;;;;6341473;22;44399;-65
2023/12/07 07:49:44;;;;;;;7.15;3.50;;;15.10;43.00;;;;;;6343311;22;44539;-65
2023/12/07 07:52:12;;;;;;;5.60;3.67;;;15.10;43.10;;;;;;6347603;22;44442;-65
2023/12/07 07:54:39;;;;;;;5.78;3.42;;;15.10;43.10;;;;;;6342526;22;46488;-65
2023/12/07 07:57:09;;;;;;;10.93;3.90;;;15.10;43.20;;;;;;6346385;22;44412;-65
2023/12/07 07:59:39;;;;;;;4.63;3.00;;;15.10;43.30;;;;;;6341925;22;44536;-65
2023/12/07 08:02:32;;;;;;;5.82;3.60;;;15.10;43.30;;;;;;6343929;22;44704;-65
2023/12/07 08:05:33;;;;;;;5.38;3.47;;;15.10;43.30;;;;;;6347154;22;46319;-65
2023/12/07 08:08:00;;;;;;;5.30;3.35;;;15.10;43.20;;;;;;6348760;22;44485;-65
2023/12/07 08:10:35;;;;;;;5.18;3.03;;;15.10;43.30;;;;;;6346325;22;44451;-64
2023/12/07 08:13:20;;;;;;;4.65;3.10;;;15.10;43.30;;;;;;6342466;22;44485;-65
2023/12/07 08:15:59;;;;;;;4.10;2.90;;;15.10;43.60;;;;;;6345334;22;46408;-65
2023/12/07 08:18:26;;;;;;;3.90;2.55;;;15.10;43.70;;;;;;6346313;22;44661;-65
2023/12/07 08:21:21;;;;;;;5.00;3.35;;;15.10;43.60;;;;;;6345083;22;44561;-65
2023/12/07 08:23:51;;;;;;;5.10;2.95;;;15.10;43.60;;;;;;6355194;22;44451;-64
2023/12/07 08:26:18;;;;;;;4.97;2.50;;;15.10;43.70;;;;;;6343862;22;46735;-65
2023/12/07 08:28:58;;;;;;;4.07;2.85;;;15.10;43.70;;;;;;6350211;22;44381;-65
2023/12/07 08:31:35;;;;;;;5.25;3.00;;;15.10;43.80;;;;;;6344572;22;44645;-65
2023/12/07 08:34:02;;;;;;;5.32;2.88;;;15.10;44.00;;;;;;6348818;22;44478;-65
2023/12/07 08:36:33;;;;;;;4.35;2.60;;;15.10;44.00;;;;;;6345805;22;46494;-65
2023/12/07 08:39:01;;;;;;;4.28;2.75;;;15.10;44.10;;;;;;6348071;22;44403;-65
2023/12/07 08:41:56;;;;;;;3.63;2.58;;;15.10;44.20;;;;;;6351907;22;44367;-65
2023/12/07 08:44:44;;;;;;;3.67;2.75;;;15.10;44.20;;;;;;6343260;22;44656;-65
2023/12/07 08:47:27;;;;;;;5.22;2.90;;;15.10;44.30;;;;;;6342856;22;46345;-65
2023/12/07 08:50:12;;;;;;;4.90;2.60;;;15.10;44.10;;;;;;6335815;22;44472;-65
2023/12/07 08:52:40;;;;;;;4.50;2.47;;;15.10;44.10;;;;;;6343136;22;44633;-65
2023/12/07 08:55:08;;;;;;;2.95;2.38;;;15.20;44.20;;;;;;6336505;22;44590;-65
2023/12/07 08:57:37;;;;;;;2.97;2.30;;;15.20;44.30;;;;;;6336503;22;46386;-65
2023/12/07 09:00:15;;;;;;;4.28;2.65;;;15.20;44.30;;;;;;6336507;22;44713;-65
2023/12/07 09:02:57;;;;;;;3.88;2.40;;;15.20;44.40;;;;;;6345600;22;44530;-65
2023/12/07 09:05:27;;;;;;;3.22;2.47;;;15.20;44.50;;;;;;6340922;22;44566;-65
2023/12/07 09:07:54;;;;;;;3.95;2.50;;;15.20;44.80;;;;;;6263834;22;46249;-65
2023/12/07 09:10:23;;;;;;;4.65;2.42;;;15.20;44.60;;;;;;6280532;22;44871;-65
2023/12/07 09:13:06;;;;;;;3.38;2.20;;;15.20;44.60;;;;;;6277027;22;44447;-65
2023/12/07 09:15:37;;;;;;;3.88;2.58;;;15.20;44.60;;;;;;6266491;22;44533;-65
2023/12/07 09:18:11;;;;;;;4.63;2.72;;;15.10;44.60;;;;;;6258801;22;45506;-65
2023/12/07 09:32:28;;;;;;;3.78;2.50;;;15.20;45.10;;;;;;6252882;22;45274;-65
2023/12/07 09:34:54;;;;;;;3.63;2.22;;;15.20;44.90;;;;;;6193866;22;45084;-65
2023/12/07 09:37:47;;;;;;;4.55;2.90;;;15.20;45.00;;;;;;6179712;22;45345;-64
2023/12/07 09:40:29;;;;;;;2.20;1.75;;;15.20;45.10;;;;;;6213698;22;45391;-65
2023/12/07 09:43:07;;;;;;;5.28;2.35;;;15.20;45.10;;;;;;6193095;22;45250;-65
2023/12/07 09:45:52;;;;;;;4.38;2.25;;;15.20;45.10;;;;;;6179521;22;45008;-65
2023/12/07 09:48:33;;;;;;;3.28;2.33;;;15.20;45.30;;;;;;6194517;22;45067;-64
2023/12/07 09:51:11;;;;;;;3.00;2.10;;;15.20;45.20;;;;;;6213455;22;46390;-65
2023/12/07 09:53:54;;;;;;;2.97;1.95;;;15.20;45.40;;;;;;6225772;22;45142;-64
2023/12/07 09:56:23;;;;;;;3.53;2.42;;;15.20;45.30;;;;;;6201626;22;45574;-64
2023/12/07 09:59:12;;;;;;;4.20;2.60;;;15.20;45.30;;;;;;6210698;22;45281;-64
2023/12/07 10:02:03;;;;;;;2.90;2.22;;;15.20;45.30;;;;;;6223611;22;45408;-64
2023/12/07 10:05:06;;;;;;;4.57;2.00;;;15.20;45.20;;;;;;6216651;22;45288;-64
2023/12/07 10:07:37;;;;;;;3.30;2.20;;;15.20;45.40;;;;;;6215619;22;45023;-64
2023/12/07 10:10:22;;;;;;;4.32;2.78;;;15.20;45.40;;;;;;6233398;22;45047;-64
2023/12/07 10:13:25;;;;;;;2.80;2.10;;;15.20;45.40;;;;;;6181479;22;46452;-65
2023/12/07 10:16:26;;;;;;;3.42;2.28;;;15.20;45.50;;;;;;6202923;22;45119;-65
2023/12/07 10:18:53;;;;;;;4.13;2.38;;;15.20;45.60;;;;;;6225372;22;45067;-65
2023/12/07 10:24:58;;;;;;;3.70;2.40;;;15.20;45.60;;;;;;6195423;22;45807;-64
2023/12/07 10:27:43;;;;;;;3.30;2.25;;;15.20;45.50;;;;;;6212128;22;45120;-65
2023/12/07 10:30:25;;;;;;;3.55;2.65;;;15.30;45.80;;;;;;6169427;22;45232;-65
2023/12/07 10:32:53;;;;;;;4.07;2.20;;;15.20;45.70;;;;;;6199246;22;45198;-64
2023/12/07 10:35:20;;;;;;;3.45;2.45;;;15.30;45.70;;;;;;6214554;22;47095;-65
2023/12/07 10:38:07;;;;;;;4.40;2.70;;;15.30;45.80;;;;;;6215453;22;45016;-65
2023/12/07 10:41:04;;;;;;;4.00;2.55;;;15.30;45.80;;;;;;6228737;22;45114;-64
2023/12/07 10:43:46;;;;;;;3.40;2.28;;;15.20;45.80;;;;;;6209292;22;45164;-65
2023/12/07 10:46:38;;;;;;;3.17;2.35;;;15.20;46.10;;;;;;6194771;22;47183;-65
2023/12/07 10:52:32;;;;;;;3.47;2.38;;;15.20;46.10;;;;;;6191369;22;45109;-64
2023/12/07 10:55:22;;;;;;;3.88;2.30;;;15.20;46.20;;;;;;6213133;22;45083;-64
2023/12/07 10:58:07;;;;;;;2.83;2.30;;;15.20;46.20;;;;;;6204368;22;46511;-64
2023/12/07 11:01:01;;;;;;;3.90;2.25;;;15.20;46.20;;;;;;6221797;22;45104;-64
2023/12/07 11:07:15;;;;;;;4.10;2.17;;;15.20;46.50;;;;;;6158441;22;45066;-64
2023/12/07 11:13:23;;;;;;;3.90;2.10;;;15.30;46.60;;;;;;6200395;22;45308;-64
2023/12/07 11:15:50;;;;;;;3.15;1.92;;;15.30;46.70;;;;;;6206198;22;45170;-64
2023/12/07 11:18:44;;;;;;;4.45;2.55;;;15.30;46.70;;;;;;6213910;22;45278;-64
2023/12/07 11:21:28;;;;;;;3.80;2.30;;;15.30;46.70;;;;;;6192256;22;47318;-64
2023/12/07 11:23:56;;;;;;;5.65;2.30;;;15.30;46.70;;;;;;6189656;22;45206;-65
2023/12/07 11:26:36;;;;;;;3.10;2.20;;;15.30;46.90;;;;;;6238488;22;45401;-64
2023/12/07 11:29:29;;;;;;;4.53;2.40;;;15.30;47.00;;;;;;6245420;22;45261;-64
2023/12/07 11:31:58;;;;;;;5.28;2.13;;;15.30;47.00;;;;;;6201562;22;46204;-65
2023/12/07 11:34:35;;;;;;;3.22;2.30;;;15.30;46.90;;;;;;6196453;22;45087;-64
2023/12/07 11:37:20;;;;;;;2.88;2.35;;;15.30;46.20;;;;;;6184710;22;45075;-65
2023/12/07 11:40:28;;;;;;;3.67;2.28;;;15.20;45.50;;;;;;6182306;22;45101;-64
2023/12/07 11:43:45;;;;;;;3.38;2.47;;;15.20;45.30;;;;;;6183237;22;46469;-64
2023/12/07 11:46:40;;;;;;;3.47;2.50;;;15.10;45.30;;;;;;6172313;22;44832;-65
2023/12/07 11:49:21;;;;;;;3.83;2.50;;;15.10;45.20;;;;;;6171990;22;45193;-65
2023/12/07 11:51:59;;;;;;;3.47;2.42;;;15.10;45.10;;;;;;6172902;22;45253;-65
2023/12/07 11:54:50;;;;;;;3.47;2.42;;;15.10;44.90;;;;;;6170386;22;46063;-64
2023/12/07 11:57:26;;;;;;;3.92;2.53;;;15.10;45.90;;;;;;6174436;22;45284;-64
2023/12/07 12:00:15;;;;;;;3.05;2.22;;;15.20;44.90;;;;;;6184213;22;44822;-64
2023/12/07 12:03:07;;;;;;;4.43;2.85;;;15.20;44.60;;;;;;6188964;22;45322;-64
2023/12/07 12:05:34;;;;;;;3.20;2.33;;;15.20;44.60;;;;;;6189412;22;46358;-64
2023/12/07 12:08:19;;;;;;;3.83;2.65;;;15.10;44.50;;;;;;6254415;22;45210;-64
2023/12/07 12:11:11;;;;;;;4.07;2.47;;;15.10;44.40;;;;;;6247978;22;45133;-64
2023/12/07 12:14:10;;;;;;;3.63;2.67;;;15.10;44.40;;;;;;6235252;22;45403;-64
2023/12/07 12:17:33;;;;;;;4.35;2.80;;;15.10;44.30;;;;;;6239532;22;47213;-64
2023/12/07 12:19:59;;;;;;;3.97;2.50;;;15.10;44.40;;;;;;6231366;22;45518;-64
2023/12/07 12:22:37;;;;;;;3.45;2.70;;;15.10;44.40;;;;;;6239448;22;45149;-64
2023/12/07 12:25:35;;;;;;;3.75;2.63;;;15.10;44.20;;;;;;6250025;22;44680;-64
2023/12/07 12:28:23;;;;;;;4.25;2.60;;;15.10;44.40;;;;;;6247591;22;46491;-64
2023/12/07 12:31:12;;;;;;;4.47;2.72;;;15.10;44.40;;;;;;6253336;22;45064;-63
2023/12/07 12:33:51;;;;;;;4.13;2.55;;;15.10;44.20;;;;;;6248615;22;45107;-63
2023/12/07 12:36:31;;;;;;;3.58;2.60;;;15.10;44.10;;;;;;6244364;22;45008;-63
2023/12/07 12:39:28;;;;;;;3.20;2.63;;;15.10;44.00;;;;;;6248312;22;45206;-63
2023/12/07 12:42:05;;;;;;;3.22;2.25;;;15.10;44.00;;;;;;6233403;22;45231;-63
2023/12/07 12:45:06;;;;;;;3.00;2.30;;;15.10;43.90;;;;;;6227544;22;45361;-63
2023/12/07 12:47:56;;;;;;;2.60;2.08;;;15.20;43.80;;;;;;6218320;22;45211;-63
2023/12/07 12:50:53;;;;;;;4.30;2.80;;;15.20;43.90;;;;;;6196147;22;46232;-63
2023/12/07 12:53:35;;;;;;;3.92;1.92;;;15.20;43.90;;;;;;6186626;22;45098;-63
2023/12/07 12:58:43;;;;;;;3.78;2.38;;;15.10;43.80;;;;;;6124080;22;45132;-63
2023/12/07 13:01:12;;;;;;;4.25;2.55;;;15.10;43.80;;;;;;6103902;22;46543;-63
2023/12/07 13:06:21;;;;;;;4.13;2.17;;;15.10;43.90;;;;;;6049737;22;45387;-63
2023/12/07 13:09:11;;;;;;;3.15;2.38;;;15.10;43.90;;;;;;6072635;22;45198;-63
2023/12/07 13:11:37;;;;;;;4.00;2.35;;;15.10;43.90;;;;;;6085669;22;46094;-62
2023/12/07 13:14:07;;;;;;;2.80;2.00;;;15.10;44.40;;;;;;6044822;22;45158;-63
2023/12/07 13:16:36;;;;;;;3.88;2.40;;;15.10;52.30;;;;;;6080745;22;45197;-64
2023/12/07 13:19:02;;;;;;;4.38;2.45;;;15.10;49.40;;;;;;6090336;22;45368;-63
2023/12/07 13:21:32;;;;;;;2.53;1.85;;;15.10;47.70;;;;;;6099709;22;46828;-64
2023/12/07 13:23:59;;;;;;;3.25;2.40;;;15.10;46.30;;;;;;6114800;22;45072;-63
2023/12/07 13:26:26;;;;;;;2.88;1.90;;;15.10;45.80;;;;;;6079803;22;45070;-63
2023/12/07 13:28:56;;;;;;;3.30;2.22;;;15.20;45.60;;;;;;6056859;22;44931;-63
2023/12/07 13:31:36;;;;;;;2.97;1.95;;;15.20;45.20;;;;;;6055714;22;46923;-63
2023/12/07 13:34:02;;;;;;;3.78;2.20;;;15.20;44.90;;;;;;6049040;22;45024;-63
2023/12/07 13:36:56;;;;;;;3.08;2.00;;;15.20;44.70;;;;;;6061987;22;45137;-63
2023/12/07 13:39:26;;;;;;;4.40;2.22;;;15.20;44.60;;;;;;6063882;22;45240;-63
2023/12/07 13:42:14;;;;;;;3.13;2.30;;;15.20;44.80;;;;;;6128280;22;46591;-63
2023/12/07 13:44:43;;;;;;;2.15;1.75;;;15.10;44.50;;;;;;6070402;22;45287;-64
2023/12/07 13:47:44;;;;;;;2.45;1.60;;;15.10;44.40;;;;;;6063032;22;45399;-63
2023/12/07 13:50:32;;;;;;;4.15;1.80;;;15.10;44.30;;;;;;6079445;22;45552;-63
2023/12/07 13:53:03;;;;;;;2.60;2.08;;;15.10;44.10;;;;;;6065332;22;46356;-63
2023/12/07 13:55:42;;;;;;;3.33;1.63;;;15.10;44.30;;;;;;6055066;22;45226;-63
2023/12/07 13:58:38;;;;;;;2.67;2.00;;;15.10;44.20;;;;;;6041861;22;45049;-63
2023/12/07 14:01:26;;;;;;;3.58;1.90;;;15.10;44.00;;;;;;6048739;22;45306;-63
2023/12/07 14:03:55;;;;;;;2.80;1.80;;;15.10;43.90;;;;;;6043978;22;47231;-63
2023/12/07 14:06:52;;;;;;;3.97;1.70;;;15.10;43.70;;;;;;6056229;22;45199;-63
2023/12/07 14:09:38;;;;;;;2.30;1.80;;;15.10;43.60;;;;;;6077985;22;45290;-63
2023/12/07 14:12:18;;;;;;;3.15;1.88;;;15.20;43.70;;;;;;6067733;22;45059;-64
2023/12/07 14:14:54;;;;;;;4.28;1.95;;;15.20;43.70;;;;;;6056118;22;46704;-64
2023/12/07 14:17:45;;;;;;;3.40;1.90;;;15.20;43.60;;;;;;6063003;22;45141;-64
2023/12/07 14:20:33;;;;;;;2.70;1.95;;;15.20;43.30;;;;;;6044152;22;45098;-63